createdAt,value
2023-04-26T00:01:38.646Z,66.64
2023-04-26T00:05:04.422Z,66.81
2023-04-26T00:08:41.147Z,66.60
2023-04-26T00:12:37.346Z,66.38
2023-04-26T00:16:20.748Z,66.49
2023-04-26T00:19:45.242Z,66.18
2023-04-26T00:23:23.081Z,66.08
2023-04-26T00:27:19.370Z,65.95
2023-04-26T00:31:03.389Z,65.42
2023-04-26T00:34:35.980Z,65.37
2023-04-26T00:38:24.289Z,65.69
2023-04-26T00:41:49.822Z,65.52
2023-04-26T00:45:45.794Z,65.62
2023-04-26T00:49:16.046Z,65.82
2023-04-26T00:52:48.345Z,66.13
2023-04-26T00:56:45.320Z,66.13
2023-04-26T01:00:10.334Z,66.23
2023-04-26T01:04:06.164Z,66.69
2023-04-26T01:07:32.443Z,66.97
2023-04-26T01:11:08.427Z,67.09
2023-04-26T01:14:46.744Z,67.25
2023-04-26T01:18:42.923Z,67.27
2023-04-26T01:22:07.186Z,67.55
2023-04-26T01:26:03.584Z,67.56
2023-04-26T01:29:47.043Z,67.76
2023-04-26T01:33:11.622Z,68.07
2023-04-26T01:37:08.466Z,68.04
2023-04-26T01:40:51.389Z,67.92
2023-04-26T01:44:16.146Z,67.97
2023-04-26T01:47:53.834Z,68.57
2023-04-26T01:51:31.792Z,68.47
2023-04-26T01:55:08.993Z,69.16
2023-04-26T01:59:05.613Z,68.89
2023-04-26T02:02:49.155Z,70.09
2023-04-26T02:06:13.886Z,69.91
2023-04-26T02:10:10.358Z,70.01
2023-04-26T02:13:34.982Z,70.30
2023-04-26T02:17:31.963Z,70.61
2023-04-26T02:21:18.694Z,70.42
2023-04-26T02:24:42.909Z,70.62
2023-04-26T02:28:21.153Z,70.56
2023-04-26T02:31:58.932Z,70.62
2023-04-26T02:35:54.967Z,70.55
2023-04-26T02:39:38.136Z,70.56
2023-04-26T02:43:02.640Z,71.09
2023-04-26T02:46:40.246Z,71.22
2023-04-26T02:50:36.811Z,71.33
2023-04-26T02:54:21.086Z,71.62
2023-04-26T02:58:05.735Z,71.50
2023-04-26T03:01:29.821Z,71.51
2023-04-26T03:05:08.836Z,71.62
2023-04-26T03:09:05.165Z,71.85
2023-04-26T03:12:29.675Z,71.71
2023-04-26T03:16:27.850Z,71.50
2023-04-26T03:20:11.933Z,71.56
2023-04-26T03:23:55.129Z,71.54
2023-04-26T03:27:20.262Z,72.05
2023-04-26T03:31:16.508Z,71.73
2023-04-26T03:35:00.644Z,71.86
2023-04-26T03:38:25.069Z,72.00
2023-04-26T03:42:03.975Z,72.26
2023-04-26T03:45:39.863Z,72.21
2023-04-26T03:49:36.612Z,72.69
2023-04-26T03:53:19.653Z,72.67
2023-04-26T03:56:43.625Z,72.84
2023-04-26T04:00:43.812Z,72.87
2023-04-26T04:04:27.984Z,72.59
2023-04-26T04:08:11.449Z,72.63
2023-04-26T04:11:54.793Z,72.89
2023-04-26T04:15:20.480Z,73.30
2023-04-26T04:18:57.379Z,73.26
2023-04-26T04:22:53.676Z,73.63
2023-04-26T04:26:37.334Z,74.37
2023-04-26T04:30:03.528Z,74.36
2023-04-26T04:33:58.542Z,74.26
2023-04-26T04:37:43.309Z,74.31
2023-04-26T04:41:08.705Z,73.88
2023-04-26T04:44:50.112Z,73.89
2023-04-26T04:48:22.944Z,74.00
2023-04-26T04:52:21.105Z,73.97
2023-04-26T04:56:05.761Z,74.02
2023-04-26T04:59:29.853Z,74.54
2023-04-26T05:03:26.747Z,74.24
2023-04-26T05:07:10.492Z,74.30
2023-04-26T05:10:36.563Z,74.33
2023-04-26T05:14:13.975Z,74.11
2023-04-26T05:17:51.895Z,73.72
2023-04-26T05:21:29.398Z,73.85
2023-04-26T05:25:08.637Z,73.45
2023-04-26T05:29:03.766Z,72.97
2023-04-26T05:32:37.606Z,72.86
2023-04-26T05:36:33.837Z,72.81
2023-04-26T05:39:58.245Z,72.61
2023-04-26T05:43:35.723Z,72.25
2023-04-26T05:47:13.612Z,71.36
2023-04-26T05:51:09.881Z,70.77
2023-04-26T05:54:34.057Z,71.00
2023-04-26T05:58:11.680Z,71.01
2023-04-26T06:01:49.362Z,70.77
2023-04-26T06:05:45.987Z,71.08
2023-04-26T06:09:31.764Z,69.87
2023-04-26T06:13:14.900Z,69.92
2023-04-26T06:16:43.013Z,69.39
2023-04-26T06:20:37.167Z,68.40
2023-04-26T06:24:03.979Z,68.39
2023-04-26T06:28:00.335Z,68.86
2023-04-26T06:31:25.012Z,68.03
2023-04-26T06:35:02.511Z,66.31
2023-04-26T06:38:59.134Z,65.61
2023-04-26T06:42:42.838Z,66.04
2023-04-26T06:46:23.052Z,64.99
2023-04-26T06:50:00.600Z,65.35
2023-04-26T06:54:00.341Z,64.67
2023-04-26T06:57:43.409Z,64.56
2023-04-26T07:01:08.654Z,64.31
2023-04-26T07:04:45.970Z,63.59
2023-04-26T07:08:41.998Z,63.37
2023-04-26T07:12:06.790Z,62.85
2023-04-26T07:15:44.396Z,63.24
2023-04-26T07:19:21.892Z,62.52
2023-04-26T07:22:59.686Z,62.15
2023-04-26T07:26:37.294Z,61.77
2023-04-26T07:30:33.813Z,61.74
2023-04-26T07:34:17.161Z,61.63
2023-04-26T07:37:44.007Z,60.59
2023-04-26T07:41:38.611Z,60.21
2023-04-26T07:45:21.937Z,60.37
2023-04-26T07:48:47.316Z,57.86
2023-04-26T07:52:43.929Z,57.55
2023-04-26T07:56:09.167Z,58.49
2023-04-26T08:00:09.280Z,58.96
2023-04-26T08:03:37.703Z,58.45
2023-04-26T08:07:14.506Z,58.30
2023-04-26T08:11:11.474Z,57.72
2023-04-26T08:14:36.917Z,56.58
2023-04-26T08:18:33.024Z,56.47
2023-04-26T08:21:57.431Z,55.98
2023-04-26T08:25:34.986Z,54.76
2023-04-26T08:29:12.960Z,55.64
2023-04-26T08:33:09.952Z,54.42
2023-04-26T08:36:38.430Z,54.31
2023-04-26T08:40:32.240Z,54.69
2023-04-26T08:44:17.254Z,54.29
2023-04-26T08:47:45.921Z,54.63
2023-04-26T08:51:21.699Z,53.60
2023-04-26T08:55:17.232Z,54.68
2023-04-26T08:59:01.669Z,55.71
2023-04-26T09:02:50.684Z,56.34
2023-04-26T09:06:16.579Z,55.17
2023-04-26T09:09:55.909Z,55.27
2023-04-26T09:13:49.780Z,54.70
2023-04-26T09:17:25.684Z,53.85
2023-04-26T09:21:08.849Z,53.72
2023-04-26T09:24:53.797Z,52.91
2023-04-26T09:28:22.849Z,53.08
2023-04-26T09:32:14.871Z,53.40
2023-04-26T09:35:42.377Z,53.36
2023-04-26T09:39:39.866Z,53.80
2023-04-26T09:43:07.912Z,51.34
2023-04-26T09:47:04.934Z,51.36
2023-04-26T09:50:31.546Z,50.35
2023-04-26T09:54:37.984Z,48.52
2023-04-26T09:58:10.640Z,49.64
2023-04-26T10:01:40.392Z,50.01
2023-04-26T10:05:17.925Z,50.85
2023-04-26T10:09:15.236Z,51.01
2023-04-26T10:32:02.740Z,45.41
2023-04-26T10:35:31.115Z,47.07
2023-04-26T10:39:25.012Z,47.34
2023-04-26T10:42:51.034Z,46.39
2023-04-26T10:46:39.129Z,45.16
2023-04-26T10:50:24.784Z,44.78
2023-04-26T10:54:08.498Z,45.46
2023-04-26T10:57:52.634Z,45.83
2023-04-26T11:01:21.060Z,46.03
2023-04-26T11:04:58.114Z,46.68
2023-04-26T11:08:53.764Z,47.93
2023-04-26T11:12:18.554Z,47.21
2023-04-26T11:16:16.618Z,44.73
2023-04-26T11:19:41.863Z,44.52
2023-04-26T11:23:37.805Z,45.20
2023-04-26T11:27:27.564Z,46.30
2023-04-26T11:30:52.643Z,45.57
2023-04-26T11:34:50.901Z,45.14
2023-04-26T11:38:15.814Z,43.80
2023-04-26T11:42:12.600Z,42.59
2023-04-26T11:45:38.430Z,42.66
2023-04-26T11:49:36.370Z,42.57
2023-04-26T11:53:19.583Z,40.32
2023-04-26T11:57:18.626Z,41.70
2023-04-26T12:01:03.341Z,40.72
2023-04-26T12:04:47.001Z,40.24
2023-04-26T12:08:12.678Z,40.31
2023-04-26T12:11:59.463Z,41.60
2023-04-26T12:15:32.177Z,41.03
2023-04-26T12:19:09.061Z,39.43
2023-04-26T12:22:42.456Z,41.09
2023-04-26T12:26:20.547Z,41.70
2023-04-26T12:30:17.016Z,42.73
2023-04-26T12:33:42.016Z,43.33
2023-04-26T12:37:41.181Z,43.46
2023-04-26T12:41:06.329Z,44.60
2023-04-26T12:44:43.112Z,44.67
2023-04-26T12:48:40.142Z,43.52
2023-04-26T12:52:04.710Z,42.01
2023-04-26T12:55:42.313Z,42.09
2023-04-26T12:59:38.753Z,42.47
2023-04-26T13:03:03.152Z,43.34
2023-04-26T13:06:41.280Z,43.22
2023-04-26T13:10:18.637Z,42.87
2023-04-26T13:13:56.066Z,41.57
2023-04-26T13:17:35.435Z,41.84
2023-04-26T13:21:30.297Z,42.16
2023-04-26T13:25:15.098Z,41.74
2023-04-26T13:28:39.807Z,40.88
2023-04-26T13:32:39.492Z,41.70
2023-04-26T13:36:22.701Z,41.77
2023-04-26T13:40:07.668Z,43.06
2023-04-26T13:43:32.163Z,43.57
2023-04-26T13:47:10.703Z,44.22
2023-04-26T13:50:47.421Z,42.62
2023-04-26T13:54:28.011Z,42.06
2023-04-26T13:58:21.623Z,41.29
2023-04-26T14:01:46.462Z,42.01
2023-04-26T14:05:42.241Z,42.66
2023-04-26T14:09:06.945Z,43.50
2023-04-26T14:12:44.198Z,44.08
2023-04-26T14:16:42.858Z,44.46
2023-04-26T14:20:26.130Z,43.69
2023-04-26T14:24:10.555Z,42.97
2023-04-26T14:27:54.300Z,42.69
2023-04-26T14:31:19.831Z,41.57
2023-04-26T14:35:00.089Z,41.81
2023-04-26T14:38:33.980Z,42.33
2023-04-26T14:42:30.542Z,41.87
2023-04-26T14:46:16.082Z,42.85
2023-04-26T14:49:41.307Z,42.66
2023-04-26T14:53:18.312Z,42.88
2023-04-26T14:57:14.745Z,42.99
2023-04-26T15:00:59.114Z,42.86
2023-04-26T15:04:44.147Z,41.70
2023-04-26T15:08:08.544Z,41.95
2023-04-26T15:11:48.009Z,42.19
2023-04-26T15:15:24.298Z,42.77
2023-04-26T15:19:01.834Z,44.29
2023-04-26T15:22:58.015Z,44.59
2023-04-26T15:26:26.076Z,45.62
2023-04-26T15:30:00.284Z,45.01
2023-04-26T15:33:56.455Z,44.54
2023-04-26T15:37:39.741Z,43.50
2023-04-26T15:41:22.962Z,43.82
2023-04-26T15:45:06.659Z,43.97
2023-04-26T15:48:31.219Z,44.06
2023-04-26T15:52:09.127Z,44.14
2023-04-26T15:56:18.339Z,44.72
2023-04-26T15:59:47.080Z,44.99
2023-04-26T16:03:24.434Z,45.01
2023-04-26T16:07:00.630Z,46.36
2023-04-26T16:11:01.722Z,48.63
2023-04-26T16:14:26.938Z,48.71
2023-04-26T16:18:04.362Z,48.75
2023-04-26T16:21:44.862Z,49.11
2023-04-26T16:25:38.444Z,48.83
2023-04-26T16:29:04.382Z,48.61
2023-04-26T16:33:10.130Z,49.42
2023-04-26T16:37:03.119Z,48.72
2023-04-26T16:40:28.224Z,48.65
2023-04-26T16:44:25.700Z,48.19
2023-04-26T16:47:51.309Z,46.67
2023-04-26T16:51:29.185Z,46.26
2023-04-26T16:55:25.620Z,45.95
2023-04-26T16:59:09.139Z,46.57
2023-04-26T17:02:55.051Z,46.48
2023-04-26T17:06:22.835Z,46.27
2023-04-26T17:10:19.277Z,46.67
2023-04-26T17:14:03.792Z,46.92
2023-04-26T17:17:47.875Z,47.00
2023-04-26T17:21:13.221Z,47.84
2023-04-26T17:25:09.458Z,48.36
2023-04-26T17:28:37.653Z,48.47
2023-04-26T17:32:13.473Z,48.70
2023-04-26T17:35:50.796Z,48.76
2023-04-26T17:39:28.377Z,48.96
2023-04-26T17:43:25.031Z,49.11
2023-04-26T17:46:49.121Z,49.36
2023-04-26T17:50:45.963Z,49.34
2023-04-26T17:54:29.618Z,49.40
2023-04-26T17:58:12.971Z,50.71
2023-04-26T18:01:37.702Z,51.31
2023-04-26T18:05:34.113Z,51.66
2023-04-26T18:08:58.337Z,51.57
2023-04-26T18:12:39.725Z,52.26
2023-04-26T18:16:32.620Z,52.63
2023-04-26T18:20:16.380Z,52.75
2023-04-26T18:23:45.696Z,52.62
2023-04-26T18:27:18.453Z,53.26
2023-04-26T18:31:15.549Z,54.43
2023-04-26T18:34:58.788Z,53.83
2023-04-26T18:38:43.441Z,54.80
2023-04-26T18:42:11.894Z,54.86
2023-04-26T18:45:49.064Z,55.52
2023-04-26T18:49:26.876Z,57.55
2023-04-26T18:53:25.839Z,57.44
2023-04-26T18:57:11.409Z,58.35
2023-04-26T19:00:35.309Z,58.65
2023-04-26T19:04:16.342Z,59.50
2023-04-26T19:08:09.948Z,59.14
2023-04-26T19:11:53.985Z,59.34
2023-04-26T19:15:40.336Z,58.70
2023-04-26T19:19:24.113Z,59.41
2023-04-26T19:23:07.268Z,61.03
2023-04-26T19:26:50.763Z,62.73
2023-04-26T19:30:19.285Z,61.75
2023-04-26T19:33:59.046Z,60.38
2023-04-26T19:37:34.934Z,60.05
2023-04-26T19:41:10.250Z,60.43
2023-04-26T19:44:49.974Z,61.07
2023-04-26T19:48:26.365Z,60.55
2023-04-26T19:52:22.319Z,60.69
2023-04-26T19:55:46.672Z,60.80
2023-04-26T19:59:48.495Z,62.54
2023-04-26T20:03:40.693Z,62.65
2023-04-26T20:07:27.225Z,63.12
2023-04-26T20:10:53.287Z,62.32
2023-04-26T20:14:30.789Z,62.20
2023-04-26T20:18:06.873Z,63.58
2023-04-26T20:21:44.150Z,63.13
2023-04-26T20:25:22.501Z,62.40
2023-04-26T20:29:18.397Z,61.87
2023-04-26T20:32:48.445Z,61.66
2023-04-26T20:36:20.968Z,61.97
2023-04-26T20:39:59.717Z,65.36
2023-04-26T20:43:36.546Z,63.50
2023-04-26T20:47:13.625Z,64.43
2023-04-26T20:51:13.194Z,64.03
2023-04-26T20:54:39.389Z,63.96
2023-04-26T20:58:35.998Z,63.40
2023-04-26T21:02:04.599Z,64.07
2023-04-26T21:05:39.886Z,63.52
2023-04-26T21:09:35.830Z,65.20
2023-04-26T21:13:19.847Z,65.87
2023-04-26T21:16:48.358Z,64.91
2023-04-26T21:20:21.959Z,66.40
2023-04-26T21:23:59.733Z,66.50
2023-04-26T21:27:37.796Z,65.60
2023-04-26T21:31:15.197Z,65.21
2023-04-26T21:34:52.804Z,65.85
2023-04-26T21:38:30.360Z,66.71
2023-04-26T21:42:27.233Z,66.74
2023-04-26T21:46:11.206Z,68.67
2023-04-26T21:49:39.599Z,69.13
2023-04-26T21:53:18.648Z,67.73
2023-04-26T21:57:14.618Z,66.65
2023-04-26T22:01:09.390Z,66.07
2023-04-26T22:04:54.133Z,66.95
2023-04-26T22:08:40.587Z,66.19
2023-04-26T22:12:09.908Z,67.62
2023-04-26T22:16:05.220Z,69.08
2023-04-26T22:19:49.106Z,68.30
2023-04-26T22:23:32.077Z,68.02
2023-04-26T22:27:15.005Z,67.91
2023-04-26T22:30:58.496Z,68.94
2023-04-26T22:34:43.796Z,67.88
2023-04-26T22:38:30.622Z,69.86
2023-04-26T22:42:13.818Z,68.50
2023-04-26T22:45:41.174Z,69.56
2023-04-26T22:49:20.043Z,69.07
2023-04-26T22:53:12.549Z,68.75
2023-04-26T22:56:37.531Z,69.68
2023-04-26T23:00:15.939Z,70.73
2023-04-26T23:03:52.221Z,74.68
2023-04-26T23:07:30.748Z,73.39
2023-04-26T23:11:27.174Z,70.99
2023-04-26T23:14:51.834Z,69.73
2023-04-26T23:18:30.127Z,69.98
2023-04-26T23:22:28.740Z,69.67
2023-04-26T23:25:53.435Z,70.06
2023-04-26T23:29:50.766Z,70.07
2023-04-26T23:33:33.664Z,71.04
2023-04-26T23:37:17.319Z,70.81
2023-04-26T23:41:03.885Z,70.05
2023-04-26T23:44:47.320Z,70.14
2023-04-26T23:48:11.517Z,70.14
2023-04-26T23:51:49.333Z,73.10
2023-04-26T23:55:46.149Z,73.90
2023-04-26T23:59:29.544Z,72.12
